Sign-in with your pilot id or email, or register

ICAO: EPGD Name / Country: Gda?skZechowo / Poland
Latitude: 54.3814 Longitude: 18.4699
Total Arrivals:
Strict Standards: Non-static method AirportData::getarrflights() should not be called statically, assuming $this from incompatible context in /var/www/customers/vh-7192/web/home/phpvms/core/templates/airport_info.tpl on line 18
1
Total Departures:
Strict Standards: Non-static method AirportData::getdeptflights() should not be called statically, assuming $this from incompatible context in /var/www/customers/vh-7192/web/home/phpvms/core/templates/airport_info.tpl on line 21
0
Latest Arrival: MTA11P (LHBP-EPGD) Tibor Berces Latest Departure: (-)
Metar: EPGD 172300Z 25010KT 9999 FEW016 BKN034 06/05 Q1002
More info

Charts for EPGD


NOTAM


Warning: file_get_contents(http://api.vateud.net/notams/EPGD.json): failed to open stream: Redirection limit reached, aborting in /var/www/customers/vh-7192/web/home/phpvms/core/common/NOTAMSData.class.php on line 18

Warning: Invalid argument supplied for foreach() in /var/www/customers/vh-7192/web/home/phpvms/core/common/NOTAMSData.class.php on line 22

Gda?skZechowo